sensor_id;sensor_type;location;lat;lon;timestamp;P1;durP1;ratioP1;P2;durP2;ratioP2
80707;SDS011;70222;49.204;-122.940;2023-06-24T00:00:56;4.93;;;4.43;;
80707;SDS011;70222;49.204;-122.940;2023-06-24T00:03:22;5.65;;;4.45;;
80707;SDS011;70222;49.204;-122.940;2023-06-24T00:05:48;5.22;;;4.30;;
80707;SDS011;70222;49.204;-122.940;2023-06-24T00:08:15;5.28;;;4.57;;
80707;SDS011;70222;49.204;-122.940;2023-06-24T00:10:45;4.65;;;4.22;;
80707;SDS011;70222;49.204;-122.940;2023-06-24T00:13:12;4.72;;;4.10;;
80707;SDS011;70222;49.204;-122.940;2023-06-24T00:15:39;5.80;;;4.22;;
80707;SDS011;70222;49.204;-122.940;2023-06-24T00:18:11;4.60;;;4.15;;
80707;SDS011;70222;49.204;-122.940;2023-06-24T00:20:37;4.35;;;3.95;;
80707;SDS011;70222;49.204;-122.940;2023-06-24T00:25:30;4.80;;;4.30;;
80707;SDS011;70222;49.204;-122.940;2023-06-24T00:30:22;5.60;;;4.35;;
80707;SDS011;70222;49.204;-122.940;2023-06-24T00:32:48;5.43;;;4.43;;
80707;SDS011;70222;49.204;-122.940;2023-06-24T00:35:14;5.05;;;4.55;;
80707;SDS011;70222;49.204;-122.940;2023-06-24T00:37:41;5.10;;;4.43;;
80707;SDS011;70222;49.204;-122.940;2023-06-24T00:40:08;4.63;;;4.03;;
80707;SDS011;70222;49.204;-122.940;2023-06-24T00:42:40;5.88;;;4.53;;
80707;SDS011;70222;49.204;-122.940;2023-06-24T00:45:07;4.93;;;4.40;;
80707;SDS011;70222;49.204;-122.940;2023-06-24T00:47:35;5.07;;;4.57;;
80707;SDS011;70222;49.204;-122.940;2023-06-24T00:50:01;4.80;;;4.30;;
80707;SDS011;70222;49.204;-122.940;2023-06-24T00:54:53;5.22;;;4.00;;
80707;SDS011;70222;49.204;-122.940;2023-06-24T00:57:21;4.47;;;3.88;;
80707;SDS011;70222;49.204;-122.940;2023-06-24T00:59:51;5.15;;;4.38;;
80707;SDS011;70222;49.204;-122.940;2023-06-24T01:02:19;4.63;;;4.00;;
80707;SDS011;70222;49.204;-122.940;2023-06-24T01:04:46;4.90;;;4.25;;
80707;SDS011;70222;49.204;-122.940;2023-06-24T01:07:14;4.90;;;4.28;;
80707;SDS011;70222;49.204;-122.940;2023-06-24T01:09:40;4.65;;;4.00;;
80707;SDS011;70222;49.204;-122.940;2023-06-24T01:12:07;4.70;;;3.80;;
80707;SDS011;70222;49.204;-122.940;2023-06-24T01:14:34;6.88;;;3.92;;
80707;SDS011;70222;49.204;-122.940;2023-06-24T01:20:01;4.78;;;4.15;;
80707;SDS011;70222;49.204;-122.940;2023-06-24T01:28:16;5.80;;;4.32;;
80707;SDS011;70222;49.204;-122.940;2023-06-24T01:36:37;7.82;;;6.70;;
80707;SDS011;70222;49.204;-122.940;2023-06-24T01:39:05;8.00;;;6.20;;
80707;SDS011;70222;49.204;-122.940;2023-06-24T01:41:40;5.50;;;4.30;;
80707;SDS011;70222;49.204;-122.940;2023-06-24T01:44:09;5.97;;;4.97;;
80707;SDS011;70222;49.204;-122.940;2023-06-24T01:46:35;6.57;;;5.38;;
80707;SDS011;70222;49.204;-122.940;2023-06-24T01:51:28;5.15;;;4.30;;
80707;SDS011;70222;49.204;-122.940;2023-06-24T01:54:04;5.93;;;5.32;;
80707;SDS011;70222;49.204;-122.940;2023-06-24T01:56:33;5.22;;;4.72;;
80707;SDS011;70222;49.204;-122.940;2023-06-24T01:59:00;6.20;;;5.10;;
80707;SDS011;70222;49.204;-122.940;2023-06-24T02:01:29;5.45;;;4.00;;
80707;SDS011;70222;49.204;-122.940;2023-06-24T02:04:00;5.80;;;4.95;;
80707;SDS011;70222;49.204;-122.940;2023-06-24T02:06:31;6.32;;;5.00;;
80707;SDS011;70222;49.204;-122.940;2023-06-24T02:08:58;7.63;;;5.43;;
80707;SDS011;70222;49.204;-122.940;2023-06-24T02:11:24;5.78;;;4.38;;
80707;SDS011;70222;49.204;-122.940;2023-06-24T02:13:52;5.28;;;4.47;;
80707;SDS011;70222;49.204;-122.940;2023-06-24T02:16:21;5.93;;;5.10;;
80707;SDS011;70222;49.204;-122.940;2023-06-24T02:18:47;5.43;;;4.60;;
80707;SDS011;70222;49.204;-122.940;2023-06-24T02:21:16;7.38;;;5.80;;
80707;SDS011;70222;49.204;-122.940;2023-06-24T02:23:45;5.95;;;4.68;;
80707;SDS011;70222;49.204;-122.940;2023-06-24T02:26:13;6.00;;;4.75;;
80707;SDS011;70222;49.204;-122.940;2023-06-24T02:28:41;5.53;;;4.82;;
80707;SDS011;70222;49.204;-122.940;2023-06-24T02:31:09;6.13;;;4.85;;
80707;SDS011;70222;49.204;-122.940;2023-06-24T02:33:36;5.95;;;4.18;;
80707;SDS011;70222;49.204;-122.940;2023-06-24T02:36:02;5.80;;;4.82;;
80707;SDS011;70222;49.204;-122.940;2023-06-24T02:38:28;6.75;;;4.68;;
80707;SDS011;70222;49.204;-122.940;2023-06-24T02:40:54;5.85;;;4.80;;
80707;SDS011;70222;49.204;-122.940;2023-06-24T02:43:23;6.43;;;4.00;;
80707;SDS011;70222;49.204;-122.940;2023-06-24T02:45:49;5.32;;;4.50;;
80707;SDS011;70222;49.204;-122.940;2023-06-24T02:48:15;5.20;;;4.25;;
80707;SDS011;70222;49.204;-122.940;2023-06-24T02:50:42;6.32;;;5.05;;
80707;SDS011;70222;49.204;-122.940;2023-06-24T02:53:12;5.88;;;4.63;;
80707;SDS011;70222;49.204;-122.940;2023-06-24T02:55:40;5.95;;;4.88;;
80707;SDS011;70222;49.204;-122.940;2023-06-24T02:58:09;5.65;;;4.07;;
80707;SDS011;70222;49.204;-122.940;2023-06-24T03:00:36;6.55;;;4.43;;
80707;SDS011;70222;49.204;-122.940;2023-06-24T03:03:03;5.13;;;4.10;;
80707;SDS011;70222;49.204;-122.940;2023-06-24T03:05:30;5.00;;;4.20;;
80707;SDS011;70222;49.204;-122.940;2023-06-24T03:07:58;4.85;;;4.13;;
80707;SDS011;70222;49.204;-122.940;2023-06-24T03:10:24;7.72;;;4.68;;
80707;SDS011;70222;49.204;-122.940;2023-06-24T03:12:51;6.75;;;4.70;;
80707;SDS011;70222;49.204;-122.940;2023-06-24T03:17:45;4.57;;;3.95;;
80707;SDS011;70222;49.204;-122.940;2023-06-24T03:20:11;4.50;;;3.58;;
80707;SDS011;70222;49.204;-122.940;2023-06-24T03:22:38;5.10;;;4.32;;
80707;SDS011;70222;49.204;-122.940;2023-06-24T03:25:04;5.03;;;4.25;;
80707;SDS011;70222;49.204;-122.940;2023-06-24T03:27:30;5.05;;;4.40;;
80707;SDS011;70222;49.204;-122.940;2023-06-24T03:29:56;5.57;;;4.55;;
80707;SDS011;70222;49.204;-122.940;2023-06-24T03:32:22;6.47;;;3.78;;
80707;SDS011;70222;49.204;-122.940;2023-06-24T03:34:49;5.43;;;4.60;;
80707;SDS011;70222;49.204;-122.940;2023-06-24T03:37:15;5.55;;;4.03;;
80707;SDS011;70222;49.204;-122.940;2023-06-24T03:39:41;6.25;;;4.22;;
80707;SDS011;70222;49.204;-122.940;2023-06-24T03:42:09;5.63;;;4.45;;
80707;SDS011;70222;49.204;-122.940;2023-06-24T03:44:35;7.55;;;5.07;;
80707;SDS011;70222;49.204;-122.940;2023-06-24T03:47:01;6.38;;;4.88;;
80707;SDS011;70222;49.204;-122.940;2023-06-24T03:49:27;6.13;;;5.35;;
80707;SDS011;70222;49.204;-122.940;2023-06-24T03:51:53;8.98;;;5.00;;
80707;SDS011;70222;49.204;-122.940;2023-06-24T03:54:19;6.93;;;4.30;;
80707;SDS011;70222;49.204;-122.940;2023-06-24T03:56:48;6.47;;;4.78;;
80707;SDS011;70222;49.204;-122.940;2023-06-24T03:59:14;11.50;;;7.70;;
80707;SDS011;70222;49.204;-122.940;2023-06-24T04:01:40;6.88;;;5.35;;
80707;SDS011;70222;49.204;-122.940;2023-06-24T04:04:06;8.18;;;5.22;;
80707;SDS011;70222;49.204;-122.940;2023-06-24T04:06:32;6.50;;;4.70;;
80707;SDS011;70222;49.204;-122.940;2023-06-24T04:08:58;5.80;;;5.18;;
80707;SDS011;70222;49.204;-122.940;2023-06-24T04:11:24;9.73;;;6.75;;
80707;SDS011;70222;49.204;-122.940;2023-06-24T04:13:50;9.98;;;6.63;;
80707;SDS011;70222;49.204;-122.940;2023-06-24T04:16:16;6.50;;;4.72;;
80707;SDS011;70222;49.204;-122.940;2023-06-24T04:18:44;8.77;;;5.82;;
80707;SDS011;70222;49.204;-122.940;2023-06-24T04:21:10;7.13;;;5.20;;
80707;SDS011;70222;49.204;-122.940;2023-06-24T04:23:36;9.32;;;4.72;;
80707;SDS011;70222;49.204;-122.940;2023-06-24T04:26:02;5.88;;;4.88;;
80707;SDS011;70222;49.204;-122.940;2023-06-24T04:28:28;5.43;;;4.85;;
80707;SDS011;70222;49.204;-122.940;2023-06-24T04:30:55;6.15;;;4.53;;
80707;SDS011;70222;49.204;-122.940;2023-06-24T04:33:22;5.95;;;5.32;;
80707;SDS011;70222;49.204;-122.940;2023-06-24T04:35:49;7.03;;;4.50;;
80707;SDS011;70222;49.204;-122.940;2023-06-24T04:38:16;5.43;;;4.90;;
80707;SDS011;70222;49.204;-122.940;2023-06-24T04:40:44;6.13;;;4.88;;
80707;SDS011;70222;49.204;-122.940;2023-06-24T04:43:10;8.75;;;4.72;;
80707;SDS011;70222;49.204;-122.940;2023-06-24T04:45:36;7.00;;;4.97;;
80707;SDS011;70222;49.204;-122.940;2023-06-24T04:48:02;4.90;;;4.28;;
80707;SDS011;70222;49.204;-122.940;2023-06-24T04:50:28;7.28;;;4.40;;
80707;SDS011;70222;49.204;-122.940;2023-06-24T04:52:55;5.68;;;3.75;;
80707;SDS011;70222;49.204;-122.940;2023-06-24T04:55:22;5.80;;;4.10;;
80707;SDS011;70222;49.204;-122.940;2023-06-24T04:57:48;6.32;;;4.15;;
80707;SDS011;70222;49.204;-122.940;2023-06-24T05:00:14;5.63;;;4.35;;
80707;SDS011;70222;49.204;-122.940;2023-06-24T05:02:41;5.65;;;4.35;;
80707;SDS011;70222;49.204;-122.940;2023-06-24T05:05:07;8.25;;;4.40;;
80707;SDS011;70222;49.204;-122.940;2023-06-24T05:07:33;5.88;;;4.70;;
80707;SDS011;70222;49.204;-122.940;2023-06-24T05:09:59;8.02;;;5.10;;
80707;SDS011;70222;49.204;-122.940;2023-06-24T05:12:25;8.00;;;5.38;;
80707;SDS011;70222;49.204;-122.940;2023-06-24T05:14:51;13.93;;;6.60;;
80707;SDS011;70222;49.204;-122.940;2023-06-24T05:17:18;6.57;;;5.20;;
80707;SDS011;70222;49.204;-122.940;2023-06-24T05:19:45;8.35;;;5.63;;
80707;SDS011;70222;49.204;-122.940;2023-06-24T05:22:11;7.07;;;5.15;;
80707;SDS011;70222;49.204;-122.940;2023-06-24T05:24:37;6.30;;;4.97;;
80707;SDS011;70222;49.204;-122.940;2023-06-24T05:27:04;6.38;;;5.68;;
80707;SDS011;70222;49.204;-122.940;2023-06-24T05:29:33;7.45;;;4.90;;
80707;SDS011;70222;49.204;-122.940;2023-06-24T05:32:01;5.20;;;4.60;;
80707;SDS011;70222;49.204;-122.940;2023-06-24T05:34:29;7.15;;;4.75;;
80707;SDS011;70222;49.204;-122.940;2023-06-24T05:36:55;6.18;;;5.47;;
80707;SDS011;70222;49.204;-122.940;2023-06-24T05:39:22;6.65;;;4.80;;
80707;SDS011;70222;49.204;-122.940;2023-06-24T05:41:48;7.05;;;4.80;;
80707;SDS011;70222;49.204;-122.940;2023-06-24T05:44:14;6.45;;;4.97;;
80707;SDS011;70222;49.204;-122.940;2023-06-24T05:46:40;6.45;;;5.07;;
80707;SDS011;70222;49.204;-122.940;2023-06-24T05:49:06;6.32;;;4.50;;
80707;SDS011;70222;49.204;-122.940;2023-06-24T05:51:32;6.78;;;5.75;;
80707;SDS011;70222;49.204;-122.940;2023-06-24T05:53:58;7.07;;;4.50;;
80707;SDS011;70222;49.204;-122.940;2023-06-24T05:56:24;6.90;;;5.10;;
80707;SDS011;70222;49.204;-122.940;2023-06-24T05:58:50;6.65;;;5.53;;
80707;SDS011;70222;49.204;-122.940;2023-06-24T06:01:16;9.70;;;6.95;;
80707;SDS011;70222;49.204;-122.940;2023-06-24T06:03:42;6.57;;;4.68;;
80707;SDS011;70222;49.204;-122.940;2023-06-24T06:06:09;7.50;;;4.72;;
80707;SDS011;70222;49.204;-122.940;2023-06-24T06:08:35;6.90;;;4.80;;
80707;SDS011;70222;49.204;-122.940;2023-06-24T06:11:01;5.63;;;4.75;;
80707;SDS011;70222;49.204;-122.940;2023-06-24T06:13:30;6.20;;;4.53;;
80707;SDS011;70222;49.204;-122.940;2023-06-24T06:15:56;8.02;;;4.60;;
80707;SDS011;70222;49.204;-122.940;2023-06-24T06:18:23;6.10;;;4.47;;
80707;SDS011;70222;49.204;-122.940;2023-06-24T06:20:49;6.25;;;4.72;;
80707;SDS011;70222;49.204;-122.940;2023-06-24T06:23:15;8.50;;;4.30;;
80707;SDS011;70222;49.204;-122.940;2023-06-24T06:25:42;5.03;;;4.18;;
80707;SDS011;70222;49.204;-122.940;2023-06-24T06:28:08;7.05;;;4.65;;
80707;SDS011;70222;49.204;-122.940;2023-06-24T06:30:34;7.13;;;4.90;;
80707;SDS011;70222;49.204;-122.940;2023-06-24T06:33:00;8.07;;;5.07;;
80707;SDS011;70222;49.204;-122.940;2023-06-24T06:35:26;5.68;;;3.70;;
80707;SDS011;70222;49.204;-122.940;2023-06-24T06:37:53;7.07;;;4.85;;
80707;SDS011;70222;49.204;-122.940;2023-06-24T06:40:19;5.75;;;4.25;;
80707;SDS011;70222;49.204;-122.940;2023-06-24T06:42:46;7.72;;;4.05;;
80707;SDS011;70222;49.204;-122.940;2023-06-24T06:45:12;5.07;;;3.83;;
80707;SDS011;70222;49.204;-122.940;2023-06-24T06:47:38;5.95;;;4.00;;
80707;SDS011;70222;49.204;-122.940;2023-06-24T06:50:08;7.47;;;4.30;;
80707;SDS011;70222;49.204;-122.940;2023-06-24T06:52:34;5.07;;;3.60;;
80707;SDS011;70222;49.204;-122.940;2023-06-24T06:55:00;10.40;;;4.47;;
80707;SDS011;70222;49.204;-122.940;2023-06-24T06:57:26;5.18;;;3.70;;
80707;SDS011;70222;49.204;-122.940;2023-06-24T06:59:53;5.75;;;3.42;;
80707;SDS011;70222;49.204;-122.940;2023-06-24T07:02:19;4.75;;;3.60;;
80707;SDS011;70222;49.204;-122.940;2023-06-24T07:04:45;7.13;;;3.47;;
80707;SDS011;70222;49.204;-122.940;2023-06-24T07:07:14;7.65;;;4.40;;
80707;SDS011;70222;49.204;-122.940;2023-06-24T07:09:43;5.22;;;3.65;;
80707;SDS011;70222;49.204;-122.940;2023-06-24T07:12:11;7.75;;;3.60;;
80707;SDS011;70222;49.204;-122.940;2023-06-24T07:14:38;6.28;;;3.20;;
80707;SDS011;70222;49.204;-122.940;2023-06-24T07:17:06;5.53;;;3.30;;
80707;SDS011;70222;49.204;-122.940;2023-06-24T07:19:32;8.32;;;3.42;;
80707;SDS011;70222;49.204;-122.940;2023-06-24T07:21:59;5.88;;;3.15;;
80707;SDS011;70222;49.204;-122.940;2023-06-24T07:24:25;3.83;;;2.90;;
80707;SDS011;70222;49.204;-122.940;2023-06-24T07:26:51;5.75;;;3.13;;
80707;SDS011;70222;49.204;-122.940;2023-06-24T07:29:17;7.18;;;3.10;;
80707;SDS011;70222;49.204;-122.940;2023-06-24T07:31:43;8.25;;;3.55;;
80707;SDS011;70222;49.204;-122.940;2023-06-24T07:34:09;7.78;;;3.00;;
80707;SDS011;70222;49.204;-122.940;2023-06-24T07:36:35;4.75;;;2.85;;
80707;SDS011;70222;49.204;-122.940;2023-06-24T07:39:01;4.93;;;3.10;;
80707;SDS011;70222;49.204;-122.940;2023-06-24T07:41:27;8.60;;;3.40;;
80707;SDS011;70222;49.204;-122.940;2023-06-24T07:43:53;7.00;;;3.10;;
80707;SDS011;70222;49.204;-122.940;2023-06-24T07:46:21;6.97;;;3.35;;
80707;SDS011;70222;49.204;-122.940;2023-06-24T07:48:47;6.95;;;3.22;;
80707;SDS011;70222;49.204;-122.940;2023-06-24T07:51:13;9.02;;;3.42;;
80707;SDS011;70222;49.204;-122.940;2023-06-24T07:53:39;8.70;;;3.50;;
80707;SDS011;70222;49.204;-122.940;2023-06-24T07:56:05;6.05;;;3.28;;
80707;SDS011;70222;49.204;-122.940;2023-06-24T07:58:33;4.93;;;3.10;;
80707;SDS011;70222;49.204;-122.940;2023-06-24T08:01:00;7.88;;;3.15;;
80707;SDS011;70222;49.204;-122.940;2023-06-24T08:03:26;8.30;;;3.80;;
80707;SDS011;70222;49.204;-122.940;2023-06-24T08:05:52;8.05;;;3.63;;
80707;SDS011;70222;49.204;-122.940;2023-06-24T08:08:18;5.90;;;2.78;;
80707;SDS011;70222;49.204;-122.940;2023-06-24T08:10:46;6.75;;;3.58;;
80707;SDS011;70222;49.204;-122.940;2023-06-24T08:13:13;6.03;;;2.92;;
80707;SDS011;70222;49.204;-122.940;2023-06-24T08:15:39;4.68;;;2.63;;
80707;SDS011;70222;49.204;-122.940;2023-06-24T08:18:05;6.15;;;2.90;;
80707;SDS011;70222;49.204;-122.940;2023-06-24T08:20:31;5.53;;;2.60;;
80707;SDS011;70222;49.204;-122.940;2023-06-24T08:22:57;6.43;;;2.72;;
80707;SDS011;70222;49.204;-122.940;2023-06-24T08:25:23;6.80;;;2.58;;
80707;SDS011;70222;49.204;-122.940;2023-06-24T08:27:50;5.00;;;2.65;;
80707;SDS011;70222;49.204;-122.940;2023-06-24T08:30:16;3.97;;;2.80;;
80707;SDS011;70222;49.204;-122.940;2023-06-24T08:32:43;6.25;;;3.25;;
80707;SDS011;70222;49.204;-122.940;2023-06-24T08:35:09;5.65;;;2.67;;
80707;SDS011;70222;49.204;-122.940;2023-06-24T08:37:35;5.72;;;2.60;;
80707;SDS011;70222;49.204;-122.940;2023-06-24T08:40:03;7.28;;;3.47;;
80707;SDS011;70222;49.204;-122.940;2023-06-24T08:42:32;3.72;;;2.42;;
80707;SDS011;70222;49.204;-122.940;2023-06-24T08:44:58;3.92;;;2.42;;
80707;SDS011;70222;49.204;-122.940;2023-06-24T08:47:25;6.40;;;3.00;;
80707;SDS011;70222;49.204;-122.940;2023-06-24T08:50:01;4.95;;;2.40;;
80707;SDS011;70222;49.204;-122.940;2023-06-24T08:52:30;5.68;;;2.60;;
80707;SDS011;70222;49.204;-122.940;2023-06-24T08:54:58;4.65;;;2.20;;
80707;SDS011;70222;49.204;-122.940;2023-06-24T08:57:25;5.35;;;2.38;;
80707;SDS011;70222;49.204;-122.940;2023-06-24T08:59:52;4.45;;;2.35;;
80707;SDS011;70222;49.204;-122.940;2023-06-24T09:02:19;6.50;;;2.58;;
80707;SDS011;70222;49.204;-122.940;2023-06-24T09:04:45;5.63;;;2.15;;
80707;SDS011;70222;49.204;-122.940;2023-06-24T09:07:11;5.75;;;2.40;;
80707;SDS011;70222;49.204;-122.940;2023-06-24T09:09:44;5.65;;;2.42;;
80707;SDS011;70222;49.204;-122.940;2023-06-24T09:12:11;4.68;;;2.50;;
80707;SDS011;70222;49.204;-122.940;2023-06-24T09:14:38;4.15;;;2.45;;
80707;SDS011;70222;49.204;-122.940;2023-06-24T09:17:06;5.25;;;2.70;;
80707;SDS011;70222;49.204;-122.940;2023-06-24T09:19:34;4.40;;;2.20;;
80707;SDS011;70222;49.204;-122.940;2023-06-24T09:22:05;4.53;;;2.22;;
80707;SDS011;70222;49.204;-122.940;2023-06-24T09:24:32;5.68;;;2.65;;
80707;SDS011;70222;49.204;-122.940;2023-06-24T09:29:25;5.05;;;2.40;;
80707;SDS011;70222;49.204;-122.940;2023-06-24T09:31:52;3.70;;;2.50;;
80707;SDS011;70222;49.204;-122.940;2023-06-24T09:34:21;3.85;;;2.42;;
80707;SDS011;70222;49.204;-122.940;2023-06-24T09:39:17;2.63;;;1.95;;
80707;SDS011;70222;49.204;-122.940;2023-06-24T09:41:45;6.25;;;2.70;;
80707;SDS011;70222;49.204;-122.940;2023-06-24T09:44:15;4.40;;;2.65;;
80707;SDS011;70222;49.204;-122.940;2023-06-24T09:46:42;3.55;;;2.33;;
80707;SDS011;70222;49.204;-122.940;2023-06-24T09:49:10;6.93;;;2.60;;
80707;SDS011;70222;49.204;-122.940;2023-06-24T09:51:43;4.32;;;2.53;;
80707;SDS011;70222;49.204;-122.940;2023-06-24T09:54:12;6.55;;;2.60;;
80707;SDS011;70222;49.204;-122.940;2023-06-24T09:56:40;4.72;;;2.47;;
80707;SDS011;70222;49.204;-122.940;2023-06-24T09:59:12;5.53;;;2.53;;
80707;SDS011;70222;49.204;-122.940;2023-06-24T10:01:39;4.93;;;2.70;;
80707;SDS011;70222;49.204;-122.940;2023-06-24T10:04:07;6.20;;;2.95;;
80707;SDS011;70222;49.204;-122.940;2023-06-24T10:06:34;6.63;;;2.15;;
80707;SDS011;70222;49.204;-122.940;2023-06-24T10:09:01;3.72;;;2.20;;
80707;SDS011;70222;49.204;-122.940;2023-06-24T10:11:27;4.70;;;2.13;;
80707;SDS011;70222;49.204;-122.940;2023-06-24T10:13:53;6.35;;;2.30;;
80707;SDS011;70222;49.204;-122.940;2023-06-24T10:16:22;6.53;;;2.30;;
80707;SDS011;70222;49.204;-122.940;2023-06-24T10:18:48;3.60;;;2.13;;
80707;SDS011;70222;49.204;-122.940;2023-06-24T10:21:15;4.32;;;2.05;;
80707;SDS011;70222;49.204;-122.940;2023-06-24T10:23:50;3.95;;;2.30;;
80707;SDS011;70222;49.204;-122.940;2023-06-24T10:26:26;4.35;;;2.13;;
80707;SDS011;70222;49.204;-122.940;2023-06-24T10:36:58;6.82;;;2.50;;
80707;SDS011;70222;49.204;-122.940;2023-06-24T10:47:37;5.57;;;2.50;;
80707;SDS011;70222;49.204;-122.940;2023-06-24T10:50:07;3.85;;;2.38;;
80707;SDS011;70222;49.204;-122.940;2023-06-24T10:52:53;3.85;;;2.58;;
80707;SDS011;70222;49.204;-122.940;2023-06-24T10:55:23;3.65;;;1.95;;
80707;SDS011;70222;49.204;-122.940;2023-06-24T10:58:10;3.53;;;1.98;;
80707;SDS011;70222;49.204;-122.940;2023-06-24T11:00:38;4.03;;;2.10;;
80707;SDS011;70222;49.204;-122.940;2023-06-24T11:03:11;4.97;;;2.08;;
80707;SDS011;70222;49.204;-122.940;2023-06-24T11:05:41;5.93;;;2.38;;
80707;SDS011;70222;49.204;-122.940;2023-06-24T11:08:08;5.40;;;2.25;;
80707;SDS011;70222;49.204;-122.940;2023-06-24T11:13:13;5.53;;;3.03;;
80707;SDS011;70222;49.204;-122.940;2023-06-24T11:15:39;5.95;;;2.45;;
80707;SDS011;70222;49.204;-122.940;2023-06-24T11:18:09;3.88;;;2.20;;
80707;SDS011;70222;49.204;-122.940;2023-06-24T11:20:39;3.83;;;2.15;;
80707;SDS011;70222;49.204;-122.940;2023-06-24T11:23:09;5.72;;;2.80;;
80707;SDS011;70222;49.204;-122.940;2023-06-24T11:25:42;4.38;;;2.40;;
80707;SDS011;70222;49.204;-122.940;2023-06-24T11:28:12;3.92;;;2.00;;
80707;SDS011;70222;49.204;-122.940;2023-06-24T11:30:39;4.78;;;2.38;;
80707;SDS011;70222;49.204;-122.940;2023-06-24T11:33:06;4.60;;;2.33;;
80707;SDS011;70222;49.204;-122.940;2023-06-24T11:35:32;3.58;;;2.25;;
80707;SDS011;70222;49.204;-122.940;2023-06-24T11:38:01;8.70;;;2.40;;
80707;SDS011;70222;49.204;-122.940;2023-06-24T11:40:27;5.32;;;2.40;;
80707;SDS011;70222;49.204;-122.940;2023-06-24T11:42:56;5.13;;;2.40;;
80707;SDS011;70222;49.204;-122.940;2023-06-24T11:45:23;5.30;;;2.78;;
80707;SDS011;70222;49.204;-122.940;2023-06-24T11:47:51;6.03;;;2.78;;
80707;SDS011;70222;49.204;-122.940;2023-06-24T11:50:18;4.97;;;2.40;;
80707;SDS011;70222;49.204;-122.940;2023-06-24T11:52:45;4.82;;;2.35;;
80707;SDS011;70222;49.204;-122.940;2023-06-24T11:55:18;3.08;;;2.30;;
80707;SDS011;70222;49.204;-122.940;2023-06-24T11:57:55;4.63;;;2.75;;
80707;SDS011;70222;49.204;-122.940;2023-06-24T12:03:06;5.85;;;2.88;;
80707;SDS011;70222;49.204;-122.940;2023-06-24T12:05:34;4.20;;;2.85;;
80707;SDS011;70222;49.204;-122.940;2023-06-24T12:08:06;4.63;;;2.70;;
80707;SDS011;70222;49.204;-122.940;2023-06-24T12:10:34;8.85;;;2.90;;
80707;SDS011;70222;49.204;-122.940;2023-06-24T12:15:27;4.03;;;2.58;;
80707;SDS011;70222;49.204;-122.940;2023-06-24T12:17:55;4.03;;;2.45;;
80707;SDS011;70222;49.204;-122.940;2023-06-24T12:20:23;6.20;;;3.03;;
80707;SDS011;70222;49.204;-122.940;2023-06-24T12:22:50;3.90;;;2.60;;
80707;SDS011;70222;49.204;-122.940;2023-06-24T12:25:17;6.85;;;2.88;;
80707;SDS011;70222;49.204;-122.940;2023-06-24T12:27:43;4.25;;;2.63;;
80707;SDS011;70222;49.204;-122.940;2023-06-24T12:30:10;7.03;;;2.95;;
80707;SDS011;70222;49.204;-122.940;2023-06-24T12:35:03;5.30;;;2.75;;
80707;SDS011;70222;49.204;-122.940;2023-06-24T12:37:32;8.13;;;3.08;;
80707;SDS011;70222;49.204;-122.940;2023-06-24T12:40:02;5.95;;;3.33;;
80707;SDS011;70222;49.204;-122.940;2023-06-24T12:42:29;5.05;;;2.83;;
80707;SDS011;70222;49.204;-122.940;2023-06-24T12:44:55;6.68;;;2.90;;
80707;SDS011;70222;49.204;-122.940;2023-06-24T12:47:22;7.97;;;3.30;;
80707;SDS011;70222;49.204;-122.940;2023-06-24T12:49:51;5.45;;;2.90;;
80707;SDS011;70222;49.204;-122.940;2023-06-24T12:52:18;6.65;;;3.20;;
80707;SDS011;70222;49.204;-122.940;2023-06-24T12:54:44;7.40;;;2.88;;
80707;SDS011;70222;49.204;-122.940;2023-06-24T12:57:10;5.18;;;2.97;;
80707;SDS011;70222;49.204;-122.940;2023-06-24T12:59:37;8.57;;;3.55;;
80707;SDS011;70222;49.204;-122.940;2023-06-24T13:02:03;6.75;;;2.90;;
80707;SDS011;70222;49.204;-122.940;2023-06-24T13:04:30;5.65;;;3.22;;
80707;SDS011;70222;49.204;-122.940;2023-06-24T13:06:56;8.02;;;3.15;;
80707;SDS011;70222;49.204;-122.940;2023-06-24T13:09:22;6.95;;;3.20;;
80707;SDS011;70222;49.204;-122.940;2023-06-24T13:11:50;5.10;;;3.00;;
80707;SDS011;70222;49.204;-122.940;2023-06-24T13:14:16;7.30;;;3.03;;
80707;SDS011;70222;49.204;-122.940;2023-06-24T13:16:43;6.78;;;3.13;;
80707;SDS011;70222;49.204;-122.940;2023-06-24T13:19:09;6.55;;;3.22;;
80707;SDS011;70222;49.204;-122.940;2023-06-24T13:21:35;6.70;;;2.60;;
80707;SDS011;70222;49.204;-122.940;2023-06-24T13:24:01;4.35;;;2.92;;
80707;SDS011;70222;49.204;-122.940;2023-06-24T13:26:28;5.10;;;2.85;;
80707;SDS011;70222;49.204;-122.940;2023-06-24T13:28:54;6.43;;;2.85;;
80707;SDS011;70222;49.204;-122.940;2023-06-24T13:31:20;5.60;;;2.63;;
80707;SDS011;70222;49.204;-122.940;2023-06-24T13:33:46;8.40;;;3.72;;
80707;SDS011;70222;49.204;-122.940;2023-06-24T13:36:32;6.70;;;2.95;;
80707;SDS011;70222;49.204;-122.940;2023-06-24T13:39:03;4.78;;;2.60;;
80707;SDS011;70222;49.204;-122.940;2023-06-24T13:41:31;6.28;;;2.65;;
80707;SDS011;70222;49.204;-122.940;2023-06-24T13:44:03;7.30;;;2.80;;
80707;SDS011;70222;49.204;-122.940;2023-06-24T13:46:31;4.40;;;2.85;;
80707;SDS011;70222;49.204;-122.940;2023-06-24T13:48:58;6.90;;;3.45;;
80707;SDS011;70222;49.204;-122.940;2023-06-24T13:53:51;7.53;;;3.13;;
80707;SDS011;70222;49.204;-122.940;2023-06-24T13:56:18;7.05;;;3.15;;
80707;SDS011;70222;49.204;-122.940;2023-06-24T13:58:45;8.65;;;3.45;;
80707;SDS011;70222;49.204;-122.940;2023-06-24T14:01:12;9.60;;;2.90;;
80707;SDS011;70222;49.204;-122.940;2023-06-24T14:03:38;6.75;;;3.03;;
80707;SDS011;70222;49.204;-122.940;2023-06-24T14:06:04;5.30;;;2.58;;
80707;SDS011;70222;49.204;-122.940;2023-06-24T14:08:31;6.35;;;2.85;;
80707;SDS011;70222;49.204;-122.940;2023-06-24T14:10:58;4.50;;;2.85;;
80707;SDS011;70222;49.204;-122.940;2023-06-24T14:13:26;4.13;;;2.45;;
80707;SDS011;70222;49.204;-122.940;2023-06-24T14:15:53;7.57;;;4.25;;
80707;SDS011;70222;49.204;-122.940;2023-06-24T14:20:47;7.22;;;2.85;;
80707;SDS011;70222;49.204;-122.940;2023-06-24T14:23:14;7.65;;;2.75;;
80707;SDS011;70222;49.204;-122.940;2023-06-24T14:25:40;8.13;;;2.80;;
80707;SDS011;70222;49.204;-122.940;2023-06-24T14:28:06;6.40;;;2.95;;
80707;SDS011;70222;49.204;-122.940;2023-06-24T14:30:33;8.95;;;2.88;;
80707;SDS011;70222;49.204;-122.940;2023-06-24T14:33:02;4.95;;;2.67;;
80707;SDS011;70222;49.204;-122.940;2023-06-24T14:35:29;8.75;;;2.92;;
80707;SDS011;70222;49.204;-122.940;2023-06-24T14:37:55;5.70;;;2.67;;
80707;SDS011;70222;49.204;-122.940;2023-06-24T14:40:21;4.30;;;3.20;;
80707;SDS011;70222;49.204;-122.940;2023-06-24T14:42:47;5.55;;;2.88;;
80707;SDS011;70222;49.204;-122.940;2023-06-24T14:45:14;6.05;;;2.58;;
80707;SDS011;70222;49.204;-122.940;2023-06-24T14:47:40;6.53;;;3.00;;
80707;SDS011;70222;49.204;-122.940;2023-06-24T14:50:06;4.75;;;3.00;;
80707;SDS011;70222;49.204;-122.940;2023-06-24T14:52:33;6.82;;;3.55;;
80707;SDS011;70222;49.204;-122.940;2023-06-24T14:54:59;5.15;;;3.15;;
80707;SDS011;70222;49.204;-122.940;2023-06-24T14:57:25;4.82;;;2.90;;
80707;SDS011;70222;49.204;-122.940;2023-06-24T14:59:52;4.35;;;2.90;;
80707;SDS011;70222;49.204;-122.940;2023-06-24T15:02:18;5.95;;;2.78;;
80707;SDS011;70222;49.204;-122.940;2023-06-24T15:04:44;5.03;;;3.80;;
80707;SDS011;70222;49.204;-122.940;2023-06-24T15:07:11;5.72;;;3.50;;
80707;SDS011;70222;49.204;-122.940;2023-06-24T15:09:37;9.35;;;3.80;;
80707;SDS011;70222;49.204;-122.940;2023-06-24T15:12:03;7.45;;;3.30;;